Hopedale, Canada
Current Conditions -  °F | °C
As of 7:00 PM on Monday 22 Dec 2014 (Local Time) from CYDP Reporting Station
Scattered Clouds Scattered Clouds  
Wind Chill:   Ceiling: Unl
Heat Index: 12°   Visibility: 15mi
Dew Point:   Wind: 5mph
Humidity: 67%   Direction: 270°W
Pressure: 30.25"   Gusts: NA
Location:  55.46°N, 60.19°W
Report Text: CYDP 222300Z 27004KT 15SM SCT120 M11/M16 A3025 RMK AC4 SLP245
Loading
Personal Weather Stations






























Interactive Weather Map New forecast layout! Learn more

10-Day Weather Forecast

Advertisements
Track Severe Weather on mobile